createdAt,value
2018-09-20T00:05:14.460Z,98043.09
2018-09-20T00:07:47.403Z,98041.55
2018-09-20T00:10:18.840Z,98040.70
2018-09-20T00:12:54.944Z,98039.05
2018-09-20T00:15:27.228Z,98037.02
2018-09-20T00:18:02.140Z,98037.30
2018-09-20T00:20:32.509Z,98039.05
2018-09-20T00:23:06.768Z,98036.62
2018-09-20T00:25:44.807Z,98033.56
2018-09-20T00:28:15.661Z,98036.22
2018-09-20T00:30:46.728Z,98040.45
2018-09-20T00:33:17.787Z,98036.38
2018-09-20T00:35:58.621Z,98036.03
2018-09-20T00:41:37.477Z,98037.01
2018-09-20T00:44:15.343Z,98030.45
2018-09-20T00:46:48.330Z,98032.11
2018-09-20T00:49:18.914Z,98031.03
2018-09-20T00:54:29.210Z,98032.23
2018-09-20T00:56:59.462Z,98037.86
2018-09-20T00:59:31.268Z,98033.27
2018-09-20T01:02:01.205Z,98033.18
2018-09-20T01:04:31.415Z,98035.41
2018-09-20T01:07:01.786Z,98038.08
2018-09-20T01:09:31.742Z,98027.39
2018-09-20T01:12:02.426Z,98028.37
2018-09-20T01:14:32.772Z,98021.88
2018-09-20T01:17:03.298Z,98020.37
2018-09-20T01:19:34.140Z,98026.33
2018-09-20T01:22:05.318Z,98031.03
2018-09-20T01:24:35.516Z,98028.70
2018-09-20T01:27:05.598Z,98023.66
2018-09-20T01:29:35.969Z,98021.95
2018-09-20T01:32:06.269Z,98025.98
2018-09-20T01:34:36.339Z,98020.64
2018-09-20T01:37:06.178Z,98016.63
2018-09-20T01:39:40.144Z,98027.81
2018-09-20T01:42:15.326Z,98026.86
2018-09-20T01:44:46.580Z,98021.52
2018-09-20T01:47:20.184Z,98033.41
2018-09-20T01:49:50.637Z,98034.63
2018-09-20T01:52:24.177Z,98032.83
2018-09-20T04:06:24.234Z,98019.37
2018-09-20T04:08:54.326Z,98019.54
2018-09-20T04:11:24.249Z,98008.22
2018-09-20T04:13:54.158Z,98018.14
2018-09-20T04:16:24.229Z,98015.91
2018-09-20T04:18:54.670Z,98013.84
2018-09-20T04:21:38.649Z,98010.58
2018-09-20T04:24:09.501Z,98013.20
2018-09-20T04:26:39.576Z,98017.45
2018-09-20T04:29:09.618Z,98021.10
2018-09-20T04:31:39.422Z,98024.52
2018-09-20T04:34:09.498Z,98017.34
2018-09-20T04:36:39.313Z,98025.00
2018-09-20T04:39:10.915Z,98028.93
2018-09-20T04:41:40.766Z,98022.13
2018-09-20T04:44:10.837Z,98025.89
2018-09-20T04:46:40.697Z,98028.22
2018-09-20T04:49:10.750Z,98031.20
2018-09-20T04:51:40.743Z,98026.44
2018-09-20T04:54:10.694Z,98033.82
2018-09-20T04:56:40.546Z,98035.22
2018-09-20T04:59:10.484Z,98035.67
2018-09-20T05:01:40.501Z,98038.70
2018-09-20T05:04:10.442Z,98039.41
2018-09-20T05:06:40.255Z,98030.34
2018-09-20T05:09:13.950Z,98042.03
2018-09-20T05:11:44.555Z,98040.50
2018-09-20T05:14:14.382Z,98040.50
2018-09-20T05:16:44.359Z,98033.75
2018-09-20T06:53:43.847Z,98046.20
2018-09-20T09:46:54.497Z,98014.41
2018-09-20T09:49:24.461Z,98006.76
2018-09-20T09:51:54.600Z,98008.37
2018-09-20T09:54:24.872Z,98008.58
2018-09-20T09:56:54.874Z,98003.60
2018-09-20T09:59:25.100Z,97994.04
2018-09-20T10:01:55.071Z,97999.91
2018-09-20T10:04:25.055Z,97993.17
2018-09-20T10:06:55.018Z,97988.82
2018-09-20T10:09:25.115Z,97992.66
2018-09-20T10:11:55.069Z,97981.13
2018-09-20T10:14:24.838Z,97978.92
2018-09-20T10:16:54.727Z,97978.88
2018-09-20T10:19:24.630Z,97975.61
2018-09-20T10:21:54.539Z,97971.70
2018-09-20T10:24:24.583Z,97970.14
2018-09-20T10:26:54.534Z,97966.45
2018-09-20T10:29:24.682Z,97971.79
2018-09-20T10:31:54.526Z,97960.70
2018-09-20T10:34:24.503Z,97964.54
2018-09-20T10:36:54.623Z,97961.47
2018-09-20T10:39:24.405Z,97953.23
2018-09-20T10:41:54.284Z,97950.08
2018-09-20T10:44:24.211Z,97947.72
2018-09-20T10:46:54.043Z,97945.57
2018-09-20T10:49:23.744Z,97946.53
2018-09-20T10:51:53.820Z,97943.52
2018-09-20T10:54:23.567Z,97938.64
2018-09-20T10:56:53.627Z,97937.14
2018-09-20T10:59:23.457Z,97948.83
2018-09-20T11:01:53.459Z,97943.19
2018-09-20T11:04:23.254Z,97941.59
2018-09-20T11:10:18.828Z,97934.30
2018-09-20T11:12:49.259Z,97924.63
2018-09-20T11:15:18.908Z,97927.37
2018-09-20T11:17:50.125Z,97915.24
2018-09-20T11:20:20.050Z,97912.66
2018-09-20T11:22:49.798Z,97922.74
2018-09-20T11:25:19.558Z,97917.66
2018-09-20T11:27:49.397Z,97918.06
2018-09-20T11:30:19.227Z,97913.31
2018-09-20T11:32:49.184Z,97908.90
2018-09-20T11:35:18.960Z,97907.64
2018-09-20T11:37:48.778Z,97908.33
2018-09-20T11:40:18.752Z,97904.73
2018-09-20T11:42:48.580Z,97905.06
2018-09-20T11:45:18.354Z,97899.74
2018-09-20T11:47:48.171Z,97904.79
2018-09-20T11:50:17.933Z,97901.36
2018-09-20T11:52:47.854Z,97895.25
2018-09-20T11:55:17.772Z,97889.47
2018-09-20T11:57:47.712Z,97884.19
2018-09-20T12:00:21.008Z,97892.82
2018-09-20T12:02:52.950Z,97889.54
2018-09-20T12:05:23.391Z,97883.81
2018-09-20T12:07:53.229Z,97885.85
2018-09-20T12:10:23.009Z,97877.33
2018-09-20T12:12:52.884Z,97879.28
2018-09-20T12:15:22.684Z,97877.11
2018-09-20T12:17:52.647Z,97875.78
2018-09-20T12:20:22.542Z,97868.06
2018-09-20T12:22:52.443Z,97872.40
2018-09-20T12:25:22.391Z,97871.70
2018-09-20T12:27:52.407Z,97866.77
2018-09-20T12:30:22.207Z,97862.64
2018-09-20T12:32:52.348Z,97858.72
2018-09-20T12:35:22.218Z,97854.13
2018-09-20T12:37:52.183Z,97848.89
2018-09-20T12:40:21.973Z,97855.82
2018-09-20T12:42:51.925Z,97852.16
2018-09-20T12:45:21.662Z,97852.22
2018-09-20T12:47:51.583Z,97850.09
2018-09-20T12:50:21.501Z,97840.41
2018-09-20T12:52:51.423Z,97838.45
2018-09-20T12:55:21.252Z,97833.27
2018-09-20T12:57:51.073Z,97829.88
2018-09-20T13:00:21.731Z,97825.47
2018-09-20T13:02:51.630Z,97828.13
2018-09-20T13:05:21.384Z,97825.03
2018-09-20T13:07:51.765Z,97828.78
2018-09-20T13:10:21.735Z,97823.48
2018-09-20T13:12:51.767Z,97825.67
2018-09-20T13:15:21.626Z,97816.03
2018-09-20T13:17:51.586Z,97813.76
2018-09-20T13:20:22.434Z,97810.84
2018-09-20T13:22:52.597Z,97809.23
2018-09-20T13:25:24.722Z,97803.66
2018-09-20T13:32:22.401Z,97800.92
2018-09-20T13:34:52.121Z,97803.00
2018-09-20T13:37:22.743Z,97799.91
2018-09-20T13:39:53.261Z,97797.83
2018-09-20T13:42:28.899Z,97793.27
2018-09-20T13:45:00.339Z,97792.16
2018-09-20T13:47:42.978Z,97785.01
2018-09-20T13:50:18.344Z,97783.45
2018-09-20T13:52:48.521Z,97779.07
2018-09-20T13:55:24.506Z,97779.17
2018-09-20T14:00:40.291Z,97775.80
2018-09-20T14:03:16.439Z,97777.87
2018-09-20T14:05:47.666Z,97770.19
2018-09-20T14:08:18.954Z,97772.86
2018-09-20T14:10:49.859Z,97770.51
2018-09-20T14:13:20.580Z,97768.67
2018-09-20T14:15:50.388Z,97767.51
2018-09-20T14:18:23.304Z,97771.48
2018-09-20T14:20:54.353Z,97763.31
2018-09-20T14:23:24.898Z,97764.73
2018-09-20T14:25:54.579Z,97762.53
2018-09-20T14:28:24.520Z,97758.33
2018-09-20T14:30:55.142Z,97760.45
2018-09-20T14:33:25.022Z,97756.47
2018-09-20T14:35:54.804Z,97754.50
2018-09-20T14:38:24.682Z,97751.19
2018-09-20T14:40:54.443Z,97747.68
2018-09-20T14:43:24.342Z,97750.45
2018-09-20T14:58:52.943Z,97749.84
2018-09-20T15:01:23.712Z,97741.89
2018-09-20T15:03:56.216Z,97736.68
2018-09-20T15:06:26.944Z,97738.05
2018-09-20T15:09:02.902Z,97738.42
2018-09-20T15:11:33.182Z,97737.97
2018-09-20T15:14:03.587Z,97740.74
2018-09-20T15:16:33.546Z,97735.83
2018-09-20T15:19:04.008Z,97735.16
2018-09-20T15:21:49.809Z,97738.28
2018-09-20T15:24:26.064Z,97739.86
2018-09-20T15:26:56.763Z,97737.60
2018-09-20T15:29:27.203Z,97737.31
2018-09-20T15:31:57.944Z,97739.55
2018-09-20T15:34:28.034Z,97738.05
2018-09-20T15:36:59.798Z,97738.08
2018-09-20T15:39:30.564Z,97741.34
2018-09-20T15:42:10.645Z,97738.66
2018-09-20T15:44:41.206Z,97739.63
2018-09-20T15:47:11.575Z,97732.50
2018-09-20T15:49:42.685Z,97739.30
2018-09-20T15:52:18.212Z,97739.98
2018-09-20T15:58:39.904Z,97739.45
2018-09-20T16:01:49.241Z,97736.36
2018-09-20T16:04:46.272Z,97741.12
2018-09-20T16:07:25.659Z,97742.28
2018-09-20T16:10:03.947Z,97741.17
2018-09-20T16:15:41.217Z,97746.13
2018-09-20T16:18:12.415Z,97742.61
2018-09-20T16:24:10.140Z,97751.94
2018-09-20T16:26:39.923Z,97749.84
2018-09-20T16:30:25.712Z,97745.81
2018-09-20T16:33:14.590Z,97743.61
2018-09-20T16:35:57.000Z,97748.02
2018-09-20T16:38:34.129Z,97750.59
2018-09-20T16:41:08.244Z,97746.16
2018-09-20T16:43:38.267Z,97752.20
2018-09-20T16:46:08.239Z,97755.50
2018-09-20T16:48:38.059Z,97756.85
2018-09-20T16:51:07.898Z,97751.38
2018-09-20T16:53:37.780Z,97753.71
2018-09-20T16:56:07.990Z,97755.84
2018-09-20T16:58:37.949Z,97752.72
2018-09-20T17:01:07.860Z,97759.63
2018-09-20T17:03:37.782Z,97762.45
2018-09-20T17:06:07.627Z,97769.13
2018-09-20T17:08:42.112Z,97770.48
2018-09-20T17:11:12.302Z,97769.13
2018-09-20T17:13:42.541Z,97774.67
2018-09-20T17:16:12.263Z,97772.62
2018-09-20T17:18:42.140Z,97776.72
2018-09-20T17:21:11.803Z,97778.05
2018-09-20T17:23:41.722Z,97779.30
2018-09-20T17:26:13.717Z,97782.89
2018-09-20T17:28:44.260Z,97780.88
2018-09-20T17:31:14.305Z,97780.86
2018-09-20T17:33:44.462Z,97779.95
2018-09-20T17:36:14.655Z,97779.16
2018-09-20T17:38:46.000Z,97785.84
2018-09-20T17:41:20.036Z,97788.19
2018-09-20T17:43:53.983Z,97786.48
2018-09-20T17:46:23.707Z,97790.41
2018-09-20T17:48:53.556Z,97793.25
2018-09-20T17:51:25.095Z,97794.73
2018-09-20T17:53:57.920Z,97797.20
2018-09-20T17:56:35.693Z,97794.71
2018-09-20T17:59:09.811Z,97794.15
2018-09-20T18:01:39.721Z,97795.75
2018-09-20T18:04:24.129Z,97792.55
2018-09-20T18:06:56.264Z,97789.10
2018-09-20T18:10:10.345Z,97794.56
2018-09-20T18:42:53.367Z,97807.21
2018-09-20T18:45:23.527Z,97811.04
2018-09-20T18:47:54.693Z,97808.69
2018-09-20T18:50:26.047Z,97816.01
2018-09-20T18:52:56.226Z,97811.84
2018-09-20T18:55:27.251Z,97815.33
2018-09-20T18:57:57.606Z,97817.47
2018-09-20T19:00:27.439Z,97809.69
2018-09-20T19:02:57.257Z,97810.80
2018-09-20T19:05:27.678Z,97814.16
2018-09-20T19:07:57.758Z,97816.66
2018-09-20T19:10:27.737Z,97819.42
2018-09-20T19:12:58.553Z,97811.06
2018-09-20T19:15:33.097Z,97814.99
2018-09-20T19:18:02.977Z,97810.09
2018-09-20T19:20:34.497Z,97809.84
2018-09-20T19:23:04.197Z,97811.06
2018-09-20T19:25:34.098Z,97814.88
2018-09-20T19:28:03.901Z,97810.95
2018-09-20T19:33:08.387Z,97807.86
2018-09-20T19:35:38.317Z,97808.92
2018-09-20T19:38:08.183Z,97807.36
2018-09-20T19:40:47.618Z,97815.27
2018-09-20T19:43:17.339Z,97815.33
2018-09-20T19:45:47.380Z,97810.97
2018-09-20T19:48:17.138Z,97808.67
2018-09-20T19:50:48.063Z,97813.30
2018-09-20T19:53:17.964Z,97812.59
2018-09-20T19:55:47.945Z,97805.87
2018-09-20T19:58:17.803Z,97809.34
2018-09-20T20:00:47.716Z,97812.69
2018-09-20T20:03:18.176Z,97809.58
2018-09-20T20:05:48.110Z,97817.22
2018-09-20T20:08:17.917Z,97807.98
2018-09-20T20:10:47.718Z,97806.56
2018-09-20T20:13:17.837Z,97812.76
2018-09-20T20:15:47.777Z,97813.02
2018-09-20T20:18:17.520Z,97804.91
2018-09-20T20:20:47.522Z,97806.45
2018-09-20T20:23:17.376Z,97807.27
2018-09-20T20:25:47.379Z,97805.84
2018-09-20T20:28:17.135Z,97809.53
2018-09-20T20:30:47.855Z,97804.27
2018-09-20T20:33:17.579Z,97807.95
2018-09-20T20:35:47.395Z,97804.88
2018-09-20T20:38:17.255Z,97798.76
2018-09-20T20:40:47.338Z,97800.67
2018-09-20T20:43:17.078Z,97797.67
2018-09-20T20:45:47.000Z,97801.61
2018-09-20T20:48:16.776Z,97794.33
2018-09-20T20:50:47.077Z,97799.44
2018-09-20T20:53:17.056Z,97802.28
2018-09-20T20:55:47.117Z,97795.45
2018-09-20T20:58:16.908Z,97795.94
2018-09-20T21:00:46.939Z,97799.50
2018-09-20T21:03:16.697Z,97795.30
2018-09-20T21:05:46.503Z,97790.04
2018-09-20T21:08:16.556Z,97796.67
2018-09-20T21:10:46.431Z,97794.04
2018-09-20T21:13:16.717Z,97798.91
2018-09-20T21:15:46.737Z,97796.13
2018-09-20T21:18:16.517Z,97792.97
2018-09-20T21:20:46.539Z,97792.97
2018-09-20T21:23:16.425Z,97790.94
2018-09-20T21:25:46.298Z,97792.25
2018-09-20T21:28:16.078Z,97793.19
2018-09-20T21:30:46.017Z,97787.59
2018-09-20T21:33:15.798Z,97786.62
2018-09-20T21:35:45.678Z,97785.30
2018-09-20T21:38:15.420Z,97786.22
2018-09-20T21:40:45.237Z,97785.84
2018-09-20T21:43:15.157Z,97786.70
2018-09-20T21:45:45.077Z,97781.29
2018-09-20T21:48:15.038Z,97780.68
2018-09-20T21:50:44.998Z,97779.08
2018-09-20T21:53:14.839Z,97782.96
2018-09-20T21:55:44.657Z,97782.02
2018-09-20T21:58:14.612Z,97777.59
2018-09-20T22:00:46.177Z,97782.13
2018-09-20T22:03:16.038Z,97772.95
2018-09-20T22:05:46.417Z,97776.89
2018-09-20T22:08:16.220Z,97778.89
2018-09-20T22:10:46.218Z,97778.02
2018-09-20T22:13:15.977Z,97777.61
2018-09-20T22:15:45.817Z,97772.58
2018-09-20T22:18:15.557Z,97768.64
2018-09-20T22:20:45.498Z,97773.30
2018-09-20T22:23:15.417Z,97769.58
2018-09-20T22:25:45.277Z,97766.05
2018-09-20T22:28:15.017Z,97766.73
2018-09-20T22:30:45.018Z,97758.15
2018-09-20T22:33:14.898Z,97767.78
2018-09-20T22:35:44.777Z,97761.70
2018-09-20T22:38:14.598Z,97764.22
2018-09-20T22:40:44.478Z,97768.26
2018-09-20T22:43:14.117Z,97768.42
2018-09-20T22:45:43.918Z,97769.54
2018-09-20T22:48:13.677Z,97768.33
2018-09-20T22:50:43.540Z,97768.68
2018-09-20T22:53:13.465Z,97771.58
2018-09-20T22:55:43.319Z,97765.27
2018-09-20T22:58:13.057Z,97761.81
2018-09-20T23:00:43.073Z,97757.36
2018-09-20T23:03:12.917Z,97751.91
2018-09-20T23:05:42.821Z,97755.13
2018-09-20T23:08:12.557Z,97758.75
2018-09-20T23:10:42.418Z,97754.86
2018-09-20T23:13:12.298Z,97752.23
2018-09-20T23:15:42.237Z,97755.17
2018-09-20T23:18:12.137Z,97752.89
2018-09-20T23:20:42.117Z,97750.38
2018-09-20T23:23:11.898Z,97746.34
2018-09-20T23:25:41.696Z,97743.13
2018-09-20T23:28:11.440Z,97745.37
2018-09-20T23:30:41.239Z,97737.62
2018-09-20T23:33:10.938Z,97739.69
2018-09-20T23:35:40.838Z,97732.97
2018-09-20T23:38:10.598Z,97736.63
2018-09-20T23:40:40.538Z,97733.23
2018-09-20T23:43:10.338Z,97731.45
2018-09-20T23:45:40.967Z,97732.86
2018-09-20T23:48:10.638Z,97728.20
2018-09-20T23:50:41.558Z,97728.00
2018-09-20T23:53:11.240Z,97726.83
2018-09-20T23:55:41.918Z,97723.41
2018-09-20T23:58:11.797Z,97725.71
